sensor_id;sensor_type;location;lat;lon;timestamp;temperature;humidity
18191;DHT22;47004;51.366;12.348;2023-08-17T00:00:21;22.70;99.90
18191;DHT22;47004;51.366;12.348;2023-08-17T00:02:23;22.70;99.90
18191;DHT22;47004;51.366;12.348;2023-08-17T00:04:26;22.60;99.90
18191;DHT22;47004;51.366;12.348;2023-08-17T00:06:28;22.60;99.90
18191;DHT22;47004;51.366;12.348;2023-08-17T00:08:30;22.60;99.90
18191;DHT22;47004;51.366;12.348;2023-08-17T00:10:33;22.60;99.90
18191;DHT22;47004;51.366;12.348;2023-08-17T00:12:35;22.50;99.90
18191;DHT22;47004;51.366;12.348;2023-08-17T00:14:37;22.50;99.90
18191;DHT22;47004;51.366;12.348;2023-08-17T00:16:39;22.50;99.90
18191;DHT22;47004;51.366;12.348;2023-08-17T00:18:42;22.50;99.90
18191;DHT22;47004;51.366;12.348;2023-08-17T00:20:45;22.40;99.90
18191;DHT22;47004;51.366;12.348;2023-08-17T00:22:47;22.40;99.90
18191;DHT22;47004;51.366;12.348;2023-08-17T00:24:49;22.40;99.90
18191;DHT22;47004;51.366;12.348;2023-08-17T00:26:51;22.40;99.90
18191;DHT22;47004;51.366;12.348;2023-08-17T00:28:53;22.30;99.90
18191;DHT22;47004;51.366;12.348;2023-08-17T00:30:54;22.30;99.90
18191;DHT22;47004;51.366;12.348;2023-08-17T00:32:56;22.30;99.90
18191;DHT22;47004;51.366;12.348;2023-08-17T00:34:57;22.30;99.90
18191;DHT22;47004;51.366;12.348;2023-08-17T00:37:00;22.30;99.90
18191;DHT22;47004;51.366;12.348;2023-08-17T00:39:02;22.30;99.90
18191;DHT22;47004;51.366;12.348;2023-08-17T00:41:04;22.30;99.90
18191;DHT22;47004;51.366;12.348;2023-08-17T00:43:07;22.20;99.90
18191;DHT22;47004;51.366;12.348;2023-08-17T00:45:09;22.20;99.90
18191;DHT22;47004;51.366;12.348;2023-08-17T00:47:10;22.20;99.90
18191;DHT22;47004;51.366;12.348;2023-08-17T00:49:12;22.20;99.90
18191;DHT22;47004;51.366;12.348;2023-08-17T00:51:14;22.20;99.90
18191;DHT22;47004;51.366;12.348;2023-08-17T00:53:18;22.20;99.90
18191;DHT22;47004;51.366;12.348;2023-08-17T00:55:20;22.20;99.90
18191;DHT22;47004;51.366;12.348;2023-08-17T00:57:23;22.10;99.90
18191;DHT22;47004;51.366;12.348;2023-08-17T00:59:25;22.10;99.90
18191;DHT22;47004;51.366;12.348;2023-08-17T01:01:27;22.10;99.90
18191;DHT22;47004;51.366;12.348;2023-08-17T01:03:29;22.10;99.90
18191;DHT22;47004;51.366;12.348;2023-08-17T01:05:31;22.10;99.90
18191;DHT22;47004;51.366;12.348;2023-08-17T01:07:33;22.00;99.90
18191;DHT22;47004;51.366;12.348;2023-08-17T01:09:37;22.00;99.90
18191;DHT22;47004;51.366;12.348;2023-08-17T01:11:44;22.00;99.90
18191;DHT22;47004;51.366;12.348;2023-08-17T01:13:50;22.00;99.90
18191;DHT22;47004;51.366;12.348;2023-08-17T01:15:57;22.00;99.90
18191;DHT22;47004;51.366;12.348;2023-08-17T01:18:04;21.90;99.90
18191;DHT22;47004;51.366;12.348;2023-08-17T01:20:10;21.90;99.90
18191;DHT22;47004;51.366;12.348;2023-08-17T01:22:17;21.90;99.90
18191;DHT22;47004;51.366;12.348;2023-08-17T01:24:24;21.90;99.90
18191;DHT22;47004;51.366;12.348;2023-08-17T01:26:26;21.90;99.90
18191;DHT22;47004;51.366;12.348;2023-08-17T01:28:28;21.80;99.90
18191;DHT22;47004;51.366;12.348;2023-08-17T01:30:33;21.80;99.90
18191;DHT22;47004;51.366;12.348;2023-08-17T01:32:39;21.80;99.90
18191;DHT22;47004;51.366;12.348;2023-08-17T01:34:57;21.80;99.90
18191;DHT22;47004;51.366;12.348;2023-08-17T01:37:01;21.80;99.90
18191;DHT22;47004;51.366;12.348;2023-08-17T01:39:04;21.80;99.90
18191;DHT22;47004;51.366;12.348;2023-08-17T01:41:07;21.80;99.90
18191;DHT22;47004;51.366;12.348;2023-08-17T01:43:13;21.70;99.90
18191;DHT22;47004;51.366;12.348;2023-08-17T01:45:16;21.70;99.90
18191;DHT22;47004;51.366;12.348;2023-08-17T01:47:20;21.70;99.90
18191;DHT22;47004;51.366;12.348;2023-08-17T01:49:23;21.70;99.90
18191;DHT22;47004;51.366;12.348;2023-08-17T01:51:25;21.70;99.90
18191;DHT22;47004;51.366;12.348;2023-08-17T01:53:27;21.70;99.90
18191;DHT22;47004;51.366;12.348;2023-08-17T01:55:29;21.70;99.90
18191;DHT22;47004;51.366;12.348;2023-08-17T01:57:32;21.70;99.90
18191;DHT22;47004;51.366;12.348;2023-08-17T01:59:34;21.70;99.90
18191;DHT22;47004;51.366;12.348;2023-08-17T02:01:36;21.70;99.90
18191;DHT22;47004;51.366;12.348;2023-08-17T02:03:38;21.70;99.90
18191;DHT22;47004;51.366;12.348;2023-08-17T02:05:46;21.70;99.90
18191;DHT22;47004;51.366;12.348;2023-08-17T02:07:47;21.70;99.90
18191;DHT22;47004;51.366;12.348;2023-08-17T02:09:49;21.60;99.90
18191;DHT22;47004;51.366;12.348;2023-08-17T02:11:51;21.60;99.90
18191;DHT22;47004;51.366;12.348;2023-08-17T02:13:53;21.50;99.90
18191;DHT22;47004;51.366;12.348;2023-08-17T02:15:58;21.50;99.90
18191;DHT22;47004;51.366;12.348;2023-08-17T02:18:01;21.40;99.90
18191;DHT22;47004;51.366;12.348;2023-08-17T02:20:03;21.40;99.90
18191;DHT22;47004;51.366;12.348;2023-08-17T02:22:05;21.40;99.90
18191;DHT22;47004;51.366;12.348;2023-08-17T02:24:06;21.40;99.90
18191;DHT22;47004;51.366;12.348;2023-08-17T02:26:09;21.30;99.90
18191;DHT22;47004;51.366;12.348;2023-08-17T02:28:11;21.30;99.90
18191;DHT22;47004;51.366;12.348;2023-08-17T02:30:14;21.30;99.90
18191;DHT22;47004;51.366;12.348;2023-08-17T02:32:16;21.30;99.90
18191;DHT22;47004;51.366;12.348;2023-08-17T02:34:18;21.20;99.90
18191;DHT22;47004;51.366;12.348;2023-08-17T02:36:20;21.10;99.90
18191;DHT22;47004;51.366;12.348;2023-08-17T02:38:22;21.00;99.90
18191;DHT22;47004;51.366;12.348;2023-08-17T02:40:24;21.00;99.90
18191;DHT22;47004;51.366;12.348;2023-08-17T02:42:25;20.90;99.90
18191;DHT22;47004;51.366;12.348;2023-08-17T02:44:27;20.90;99.90
18191;DHT22;47004;51.366;12.348;2023-08-17T02:46:31;20.80;99.90
18191;DHT22;47004;51.366;12.348;2023-08-17T02:48:33;20.70;99.90
18191;DHT22;47004;51.366;12.348;2023-08-17T02:50:35;20.70;99.90
18191;DHT22;47004;51.366;12.348;2023-08-17T02:52:37;20.60;99.90
18191;DHT22;47004;51.366;12.348;2023-08-17T02:54:39;20.60;99.90
18191;DHT22;47004;51.366;12.348;2023-08-17T02:56:40;20.50;99.90
18191;DHT22;47004;51.366;12.348;2023-08-17T02:58:42;20.40;99.90
18191;DHT22;47004;51.366;12.348;2023-08-17T03:00:44;20.20;99.90
18191;DHT22;47004;51.366;12.348;2023-08-17T03:02:47;19.80;99.90
18191;DHT22;47004;51.366;12.348;2023-08-17T03:04:49;19.20;99.90
18191;DHT22;47004;51.366;12.348;2023-08-17T03:06:50;18.90;99.90
18191;DHT22;47004;51.366;12.348;2023-08-17T03:08:52;18.80;99.90
18191;DHT22;47004;51.366;12.348;2023-08-17T03:10:54;18.70;99.90
18191;DHT22;47004;51.366;12.348;2023-08-17T03:12:56;18.60;99.90
18191;DHT22;47004;51.366;12.348;2023-08-17T03:14:58;18.60;99.90
18191;DHT22;47004;51.366;12.348;2023-08-17T03:16:59;18.50;99.90
18191;DHT22;47004;51.366;12.348;2023-08-17T03:19:03;18.50;99.90
18191;DHT22;47004;51.366;12.348;2023-08-17T03:21:05;18.50;99.90
18191;DHT22;47004;51.366;12.348;2023-08-17T03:23:07;18.50;99.90
18191;DHT22;47004;51.366;12.348;2023-08-17T03:25:09;18.50;99.90
18191;DHT22;47004;51.366;12.348;2023-08-17T03:27:11;18.50;99.90
18191;DHT22;47004;51.366;12.348;2023-08-17T03:29:14;18.50;99.90
18191;DHT22;47004;51.366;12.348;2023-08-17T03:31:15;18.50;99.90
18191;DHT22;47004;51.366;12.348;2023-08-17T03:33:17;18.50;99.90
18191;DHT22;47004;51.366;12.348;2023-08-17T03:35:21;18.50;99.90
18191;DHT22;47004;51.366;12.348;2023-08-17T03:37:23;18.50;99.90
18191;DHT22;47004;51.366;12.348;2023-08-17T03:39:24;18.50;99.90
18191;DHT22;47004;51.366;12.348;2023-08-17T03:41:26;18.40;99.90
18191;DHT22;47004;51.366;12.348;2023-08-17T03:43:28;18.50;99.90
18191;DHT22;47004;51.366;12.348;2023-08-17T03:45:30;18.40;99.90
18191;DHT22;47004;51.366;12.348;2023-08-17T03:47:32;18.40;99.90
18191;DHT22;47004;51.366;12.348;2023-08-17T03:49:37;18.40;99.90
18191;DHT22;47004;51.366;12.348;2023-08-17T03:51:40;18.40;99.90
18191;DHT22;47004;51.366;12.348;2023-08-17T03:53:42;18.40;99.90
18191;DHT22;47004;51.366;12.348;2023-08-17T03:55:46;18.40;99.90
18191;DHT22;47004;51.366;12.348;2023-08-17T03:57:48;18.40;99.90
18191;DHT22;47004;51.366;12.348;2023-08-17T03:59:50;18.40;99.90
18191;DHT22;47004;51.366;12.348;2023-08-17T04:01:51;18.40;99.90
18191;DHT22;47004;51.366;12.348;2023-08-17T04:03:53;18.40;99.90
18191;DHT22;47004;51.366;12.348;2023-08-17T04:05:55;18.40;99.90
18191;DHT22;47004;51.366;12.348;2023-08-17T04:08:00;18.40;99.90
18191;DHT22;47004;51.366;12.348;2023-08-17T04:10:04;18.40;99.90
18191;DHT22;47004;51.366;12.348;2023-08-17T04:12:08;18.40;99.90
18191;DHT22;47004;51.366;12.348;2023-08-17T04:14:10;18.40;99.90
18191;DHT22;47004;51.366;12.348;2023-08-17T04:16:12;18.30;99.90
18191;DHT22;47004;51.366;12.348;2023-08-17T04:18:14;18.30;99.90
18191;DHT22;47004;51.366;12.348;2023-08-17T04:20:16;18.20;99.90
18191;DHT22;47004;51.366;12.348;2023-08-17T04:22:18;18.10;99.90
18191;DHT22;47004;51.366;12.348;2023-08-17T04:24:22;18.00;99.90
18191;DHT22;47004;51.366;12.348;2023-08-17T04:26:23;18.00;99.90
18191;DHT22;47004;51.366;12.348;2023-08-17T04:28:26;18.00;99.90
18191;DHT22;47004;51.366;12.348;2023-08-17T04:30:28;18.00;99.90
18191;DHT22;47004;51.366;12.348;2023-08-17T04:32:33;18.00;99.90
18191;DHT22;47004;51.366;12.348;2023-08-17T04:34:35;18.10;99.90
18191;DHT22;47004;51.366;12.348;2023-08-17T04:36:37;18.10;99.90
18191;DHT22;47004;51.366;12.348;2023-08-17T04:38:39;18.20;99.90
18191;DHT22;47004;51.366;12.348;2023-08-17T04:40:42;18.20;99.90
18191;DHT22;47004;51.366;12.348;2023-08-17T04:42:47;18.20;99.90
18191;DHT22;47004;51.366;12.348;2023-08-17T04:44:49;18.20;99.90
18191;DHT22;47004;51.366;12.348;2023-08-17T04:46:51;18.30;99.90
18191;DHT22;47004;51.366;12.348;2023-08-17T04:48:53;18.30;99.90
18191;DHT22;47004;51.366;12.348;2023-08-17T04:50:54;18.40;99.90
18191;DHT22;47004;51.366;12.348;2023-08-17T04:52:56;18.40;99.90
18191;DHT22;47004;51.366;12.348;2023-08-17T04:54:58;18.40;99.90
18191;DHT22;47004;51.366;12.348;2023-08-17T04:57:01;18.40;99.90
18191;DHT22;47004;51.366;12.348;2023-08-17T04:59:03;18.40;99.90
18191;DHT22;47004;51.366;12.348;2023-08-17T05:01:06;18.50;99.90
18191;DHT22;47004;51.366;12.348;2023-08-17T05:03:08;18.50;99.90
18191;DHT22;47004;51.366;12.348;2023-08-17T05:05:10;18.50;99.90
18191;DHT22;47004;51.366;12.348;2023-08-17T05:07:12;18.50;99.90
18191;DHT22;47004;51.366;12.348;2023-08-17T05:09:14;18.50;99.90
18191;DHT22;47004;51.366;12.348;2023-08-17T05:11:16;18.50;99.90
18191;DHT22;47004;51.366;12.348;2023-08-17T05:13:20;18.60;99.90
18191;DHT22;47004;51.366;12.348;2023-08-17T05:15:21;18.60;99.90
18191;DHT22;47004;51.366;12.348;2023-08-17T05:17:23;18.60;99.90
18191;DHT22;47004;51.366;12.348;2023-08-17T05:19:25;18.60;99.90
18191;DHT22;47004;51.366;12.348;2023-08-17T05:21:27;18.60;99.90
18191;DHT22;47004;51.366;12.348;2023-08-17T05:23:30;18.60;99.90
18191;DHT22;47004;51.366;12.348;2023-08-17T05:25:34;18.70;99.90
18191;DHT22;47004;51.366;12.348;2023-08-17T05:27:36;18.80;99.90
18191;DHT22;47004;51.366;12.348;2023-08-17T05:29:39;18.80;99.90
18191;DHT22;47004;51.366;12.348;2023-08-17T05:31:41;18.80;99.90
18191;DHT22;47004;51.366;12.348;2023-08-17T05:33:43;18.80;99.90
18191;DHT22;47004;51.366;12.348;2023-08-17T05:35:44;18.90;99.90
18191;DHT22;47004;51.366;12.348;2023-08-17T05:37:46;18.90;99.90
18191;DHT22;47004;51.366;12.348;2023-08-17T05:39:48;18.90;99.90
18191;DHT22;47004;51.366;12.348;2023-08-17T05:41:50;19.00;99.90
18191;DHT22;47004;51.366;12.348;2023-08-17T05:43:51;19.00;99.90
18191;DHT22;47004;51.366;12.348;2023-08-17T05:45:56;19.00;99.90
18191;DHT22;47004;51.366;12.348;2023-08-17T05:47:58;19.00;99.90
18191;DHT22;47004;51.366;12.348;2023-08-17T05:50:00;19.00;99.90
18191;DHT22;47004;51.366;12.348;2023-08-17T05:52:03;19.10;99.90
18191;DHT22;47004;51.366;12.348;2023-08-17T05:54:05;19.10;99.90
18191;DHT22;47004;51.366;12.348;2023-08-17T05:56:07;19.10;99.90
18191;DHT22;47004;51.366;12.348;2023-08-17T05:58:09;19.20;99.90
18191;DHT22;47004;51.366;12.348;2023-08-17T06:00:12;19.20;99.90
18191;DHT22;47004;51.366;12.348;2023-08-17T06:02:16;19.20;99.90
18191;DHT22;47004;51.366;12.348;2023-08-17T06:04:18;19.20;99.90
18191;DHT22;47004;51.366;12.348;2023-08-17T06:06:21;19.20;99.90
18191;DHT22;47004;51.366;12.348;2023-08-17T06:08:23;19.20;99.90
18191;DHT22;47004;51.366;12.348;2023-08-17T06:10:25;19.20;99.90
18191;DHT22;47004;51.366;12.348;2023-08-17T06:12:27;19.20;99.90
18191;DHT22;47004;51.366;12.348;2023-08-17T06:14:29;19.30;99.90
18191;DHT22;47004;51.366;12.348;2023-08-17T06:16:31;19.30;99.90
18191;DHT22;47004;51.366;12.348;2023-08-17T06:18:34;19.40;99.90
18191;DHT22;47004;51.366;12.348;2023-08-17T06:20:36;19.40;99.90
18191;DHT22;47004;51.366;12.348;2023-08-17T06:22:38;19.50;99.90
18191;DHT22;47004;51.366;12.348;2023-08-17T06:24:39;19.60;99.90
18191;DHT22;47004;51.366;12.348;2023-08-17T06:26:41;19.50;99.90
18191;DHT22;47004;51.366;12.348;2023-08-17T06:28:43;19.60;99.90
18191;DHT22;47004;51.366;12.348;2023-08-17T06:30:45;19.70;99.90
18191;DHT22;47004;51.366;12.348;2023-08-17T06:32:47;19.70;99.90
18191;DHT22;47004;51.366;12.348;2023-08-17T06:34:50;19.70;99.90
18191;DHT22;47004;51.366;12.348;2023-08-17T06:36:58;19.80;99.90
18191;DHT22;47004;51.366;12.348;2023-08-17T06:39:00;19.80;99.90
18191;DHT22;47004;51.366;12.348;2023-08-17T06:41:03;19.90;99.90
18191;DHT22;47004;51.366;12.348;2023-08-17T06:43:05;19.90;99.90
18191;DHT22;47004;51.366;12.348;2023-08-17T06:45:07;19.90;99.90
18191;DHT22;47004;51.366;12.348;2023-08-17T06:47:10;19.90;99.90
18191;DHT22;47004;51.366;12.348;2023-08-17T06:49:12;20.00;99.90
18191;DHT22;47004;51.366;12.348;2023-08-17T06:51:15;20.00;99.90
18191;DHT22;47004;51.366;12.348;2023-08-17T06:53:20;20.00;99.90
18191;DHT22;47004;51.366;12.348;2023-08-17T06:55:23;20.10;99.90
18191;DHT22;47004;51.366;12.348;2023-08-17T06:57:25;20.00;99.90
18191;DHT22;47004;51.366;12.348;2023-08-17T06:59:27;20.10;99.90
18191;DHT22;47004;51.366;12.348;2023-08-17T07:01:29;20.10;99.90
18191;DHT22;47004;51.366;12.348;2023-08-17T07:03:30;20.20;99.90
18191;DHT22;47004;51.366;12.348;2023-08-17T07:05:33;20.20;99.90
18191;DHT22;47004;51.366;12.348;2023-08-17T07:07:36;20.30;99.90
18191;DHT22;47004;51.366;12.348;2023-08-17T07:09:39;20.30;99.90
18191;DHT22;47004;51.366;12.348;2023-08-17T07:11:41;20.40;99.90
18191;DHT22;47004;51.366;12.348;2023-08-17T07:13:43;20.40;99.90
18191;DHT22;47004;51.366;12.348;2023-08-17T07:15:45;20.40;99.90
18191;DHT22;47004;51.366;12.348;2023-08-17T07:17:47;20.40;99.90
18191;DHT22;47004;51.366;12.348;2023-08-17T07:19:49;20.50;99.90
18191;DHT22;47004;51.366;12.348;2023-08-17T07:21:51;20.60;99.90
18191;DHT22;47004;51.366;12.348;2023-08-17T07:23:55;20.60;99.90
18191;DHT22;47004;51.366;12.348;2023-08-17T07:25:57;20.60;99.90
18191;DHT22;47004;51.366;12.348;2023-08-17T07:27:59;20.60;99.90
18191;DHT22;47004;51.366;12.348;2023-08-17T07:30:01;20.70;99.90
18191;DHT22;47004;51.366;12.348;2023-08-17T07:32:02;20.70;99.90
18191;DHT22;47004;51.366;12.348;2023-08-17T07:34:05;20.80;99.90
18191;DHT22;47004;51.366;12.348;2023-08-17T07:36:07;20.70;99.90
18191;DHT22;47004;51.366;12.348;2023-08-17T07:38:09;20.70;99.90
18191;DHT22;47004;51.366;12.348;2023-08-17T07:40:13;20.80;99.90
18191;DHT22;47004;51.366;12.348;2023-08-17T07:42:15;20.80;99.90
18191;DHT22;47004;51.366;12.348;2023-08-17T07:44:17;20.80;99.90
18191;DHT22;47004;51.366;12.348;2023-08-17T07:46:19;20.80;99.90
18191;DHT22;47004;51.366;12.348;2023-08-17T07:48:20;20.90;99.90
18191;DHT22;47004;51.366;12.348;2023-08-17T07:50:22;20.80;99.90
18191;DHT22;47004;51.366;12.348;2023-08-17T07:52:24;20.80;99.90
18191;DHT22;47004;51.366;12.348;2023-08-17T07:54:26;20.80;99.90
18191;DHT22;47004;51.366;12.348;2023-08-17T07:56:30;20.80;99.90
18191;DHT22;47004;51.366;12.348;2023-08-17T07:58:31;20.70;99.90
18191;DHT22;47004;51.366;12.348;2023-08-17T08:00:33;20.70;99.90
18191;DHT22;47004;51.366;12.348;2023-08-17T08:02:34;20.70;99.90
18191;DHT22;47004;51.366;12.348;2023-08-17T08:04:36;20.70;99.90
18191;DHT22;47004;51.366;12.348;2023-08-17T08:06:38;20.70;99.90
18191;DHT22;47004;51.366;12.348;2023-08-17T08:08:40;20.70;99.90
18191;DHT22;47004;51.366;12.348;2023-08-17T08:10:42;20.70;99.90
18191;DHT22;47004;51.366;12.348;2023-08-17T08:12:44;20.80;99.90
18191;DHT22;47004;51.366;12.348;2023-08-17T08:14:46;20.80;99.90
18191;DHT22;47004;51.366;12.348;2023-08-17T08:16:49;20.80;99.90
18191;DHT22;47004;51.366;12.348;2023-08-17T08:18:51;20.90;99.90
18191;DHT22;47004;51.366;12.348;2023-08-17T08:20:53;20.90;99.90
18191;DHT22;47004;51.366;12.348;2023-08-17T08:22:54;20.90;99.90
18191;DHT22;47004;51.366;12.348;2023-08-17T08:24:57;20.90;99.90
18191;DHT22;47004;51.366;12.348;2023-08-17T08:26:59;20.90;99.90
18191;DHT22;47004;51.366;12.348;2023-08-17T08:29:03;20.90;99.90
18191;DHT22;47004;51.366;12.348;2023-08-17T08:31:05;20.90;99.90
18191;DHT22;47004;51.366;12.348;2023-08-17T08:33:07;20.90;99.90
18191;DHT22;47004;51.366;12.348;2023-08-17T08:35:09;20.90;99.90
18191;DHT22;47004;51.366;12.348;2023-08-17T08:37:11;20.90;99.90
18191;DHT22;47004;51.366;12.348;2023-08-17T08:39:13;20.90;99.90
18191;DHT22;47004;51.366;12.348;2023-08-17T08:41:15;21.00;99.90
18191;DHT22;47004;51.366;12.348;2023-08-17T08:43:18;21.10;99.90
18191;DHT22;47004;51.366;12.348;2023-08-17T08:45:21;21.20;99.90
18191;DHT22;47004;51.366;12.348;2023-08-17T08:47:25;21.30;99.90
18191;DHT22;47004;51.366;12.348;2023-08-17T08:49:29;21.40;99.90
18191;DHT22;47004;51.366;12.348;2023-08-17T08:51:34;21.40;99.90
18191;DHT22;47004;51.366;12.348;2023-08-17T08:53:39;21.50;99.90
18191;DHT22;47004;51.366;12.348;2023-08-17T08:55:49;21.60;99.90
18191;DHT22;47004;51.366;12.348;2023-08-17T08:57:56;21.60;99.90
18191;DHT22;47004;51.366;12.348;2023-08-17T08:59:59;21.70;99.90
18191;DHT22;47004;51.366;12.348;2023-08-17T09:02:03;21.80;99.90
18191;DHT22;47004;51.366;12.348;2023-08-17T09:04:05;21.90;99.90
18191;DHT22;47004;51.366;12.348;2023-08-17T09:06:07;22.00;99.90
18191;DHT22;47004;51.366;12.348;2023-08-17T09:08:12;22.10;99.90
18191;DHT22;47004;51.366;12.348;2023-08-17T09:10:15;22.10;99.90
18191;DHT22;47004;51.366;12.348;2023-08-17T09:12:17;22.20;99.90
18191;DHT22;47004;51.366;12.348;2023-08-17T09:14:19;22.30;99.90
18191;DHT22;47004;51.366;12.348;2023-08-17T09:16:21;22.40;99.90
18191;DHT22;47004;51.366;12.348;2023-08-17T09:18:25;22.60;99.90
18191;DHT22;47004;51.366;12.348;2023-08-17T09:20:37;22.60;99.90
18191;DHT22;47004;51.366;12.348;2023-08-17T09:22:41;22.70;99.90
18191;DHT22;47004;51.366;12.348;2023-08-17T09:24:43;22.80;99.90
18191;DHT22;47004;51.366;12.348;2023-08-17T09:26:45;22.80;99.90
18191;DHT22;47004;51.366;12.348;2023-08-17T09:28:49;22.70;99.90
18191;DHT22;47004;51.366;12.348;2023-08-17T09:30:55;22.70;99.90
18191;DHT22;47004;51.366;12.348;2023-08-17T09:33:02;22.80;99.90
18191;DHT22;47004;51.366;12.348;2023-08-17T09:35:05;22.80;99.90
18191;DHT22;47004;51.366;12.348;2023-08-17T09:37:07;22.80;99.90
18191;DHT22;47004;51.366;12.348;2023-08-17T09:39:09;22.90;99.90
18191;DHT22;47004;51.366;12.348;2023-08-17T09:41:13;23.00;99.90
18191;DHT22;47004;51.366;12.348;2023-08-17T09:43:14;23.10;99.90
18191;DHT22;47004;51.366;12.348;2023-08-17T09:45:17;23.10;99.90
18191;DHT22;47004;51.366;12.348;2023-08-17T09:47:20;23.10;99.90
18191;DHT22;47004;51.366;12.348;2023-08-17T09:49:23;23.20;99.90
18191;DHT22;47004;51.366;12.348;2023-08-17T09:51:27;23.40;99.90
18191;DHT22;47004;51.366;12.348;2023-08-17T09:53:29;23.40;99.90
18191;DHT22;47004;51.366;12.348;2023-08-17T09:55:36;23.50;99.90
18191;DHT22;47004;51.366;12.348;2023-08-17T09:57:38;23.50;99.90
18191;DHT22;47004;51.366;12.348;2023-08-17T09:59:42;23.50;99.90
18191;DHT22;47004;51.366;12.348;2023-08-17T10:01:45;23.60;99.90
18191;DHT22;47004;51.366;12.348;2023-08-17T10:03:46;23.70;99.90
18191;DHT22;47004;51.366;12.348;2023-08-17T10:06:01;23.70;99.90
18191;DHT22;47004;51.366;12.348;2023-08-17T10:08:07;23.70;99.90
18191;DHT22;47004;51.366;12.348;2023-08-17T10:10:09;23.80;99.90
18191;DHT22;47004;51.366;12.348;2023-08-17T10:12:15;23.70;99.90
18191;DHT22;47004;51.366;12.348;2023-08-17T10:14:23;23.70;99.90
18191;DHT22;47004;51.366;12.348;2023-08-17T10:16:29;23.60;99.90
18191;DHT22;47004;51.366;12.348;2023-08-17T10:21:23;23.60;99.90
18191;DHT22;47004;51.366;12.348;2023-08-17T10:23:31;23.60;99.90
18191;DHT22;47004;51.366;12.348;2023-08-17T10:25:33;23.60;99.90
18191;DHT22;47004;51.366;12.348;2023-08-17T10:27:35;23.60;99.90
18191;DHT22;47004;51.366;12.348;2023-08-17T10:29:38;23.60;99.90
18191;DHT22;47004;51.366;12.348;2023-08-17T10:31:43;23.60;99.90
18191;DHT22;47004;51.366;12.348;2023-08-17T10:33:47;23.60;99.90
18191;DHT22;47004;51.366;12.348;2023-08-17T10:35:49;23.60;99.90
18191;DHT22;47004;51.366;12.348;2023-08-17T10:37:51;23.60;99.90
18191;DHT22;47004;51.366;12.348;2023-08-17T10:39:55;23.70;99.90
18191;DHT22;47004;51.366;12.348;2023-08-17T10:41:58;23.80;99.90
18191;DHT22;47004;51.366;12.348;2023-08-17T10:44:01;23.90;99.90
18191;DHT22;47004;51.366;12.348;2023-08-17T10:46:15;24.00;99.90
18191;DHT22;47004;51.366;12.348;2023-08-17T10:48:27;24.10;99.90
18191;DHT22;47004;51.366;12.348;2023-08-17T10:50:30;24.10;99.90
18191;DHT22;47004;51.366;12.348;2023-08-17T10:52:34;24.20;99.90
18191;DHT22;47004;51.366;12.348;2023-08-17T10:54:39;24.30;99.90
18191;DHT22;47004;51.366;12.348;2023-08-17T10:56:42;24.30;99.90
18191;DHT22;47004;51.366;12.348;2023-08-17T10:58:44;24.40;99.90
18191;DHT22;47004;51.366;12.348;2023-08-17T11:00:46;24.50;99.90
18191;DHT22;47004;51.366;12.348;2023-08-17T11:02:55;24.50;99.90
18191;DHT22;47004;51.366;12.348;2023-08-17T11:05:00;24.70;99.90
18191;DHT22;47004;51.366;12.348;2023-08-17T11:07:02;24.70;99.90
18191;DHT22;47004;51.366;12.348;2023-08-17T11:09:07;24.70;99.90
18191;DHT22;47004;51.366;12.348;2023-08-17T11:11:10;24.80;99.90
18191;DHT22;47004;51.366;12.348;2023-08-17T11:13:14;24.90;99.90
18191;DHT22;47004;51.366;12.348;2023-08-17T11:15:16;25.00;99.90
18191;DHT22;47004;51.366;12.348;2023-08-17T11:17:20;25.10;99.90
18191;DHT22;47004;51.366;12.348;2023-08-17T11:19:22;25.20;99.90
18191;DHT22;47004;51.366;12.348;2023-08-17T11:21:27;25.20;99.90
18191;DHT22;47004;51.366;12.348;2023-08-17T11:23:30;25.30;99.90
18191;DHT22;47004;51.366;12.348;2023-08-17T11:25:32;25.40;99.90
18191;DHT22;47004;51.366;12.348;2023-08-17T11:27:34;25.40;99.90
18191;DHT22;47004;51.366;12.348;2023-08-17T11:29:38;25.50;99.90
18191;DHT22;47004;51.366;12.348;2023-08-17T11:31:39;25.60;99.90
18191;DHT22;47004;51.366;12.348;2023-08-17T11:33:45;25.70;99.90
18191;DHT22;47004;51.366;12.348;2023-08-17T11:35:50;25.90;99.90
18191;DHT22;47004;51.366;12.348;2023-08-17T11:37:53;26.10;99.90
18191;DHT22;47004;51.366;12.348;2023-08-17T11:39:55;26.30;99.90
18191;DHT22;47004;51.366;12.348;2023-08-17T11:41:58;26.50;99.90
18191;DHT22;47004;51.366;12.348;2023-08-17T11:44:04;26.60;99.90
18191;DHT22;47004;51.366;12.348;2023-08-17T11:46:08;26.70;99.90
18191;DHT22;47004;51.366;12.348;2023-08-17T11:48:10;26.80;99.90
18191;DHT22;47004;51.366;12.348;2023-08-17T11:50:13;26.80;99.90
18191;DHT22;47004;51.366;12.348;2023-08-17T11:52:15;26.80;99.90
18191;DHT22;47004;51.366;12.348;2023-08-17T11:54:17;27.00;99.90
18191;DHT22;47004;51.366;12.348;2023-08-17T11:56:19;27.20;99.90
18191;DHT22;47004;51.366;12.348;2023-08-17T11:58:36;27.30;99.90
18191;DHT22;47004;51.366;12.348;2023-08-17T12:00:41;27.50;99.90
18191;DHT22;47004;51.366;12.348;2023-08-17T12:02:51;27.70;99.90
18191;DHT22;47004;51.366;12.348;2023-08-17T12:04:54;27.80;99.90
18191;DHT22;47004;51.366;12.348;2023-08-17T12:06:56;27.80;99.90
18191;DHT22;47004;51.366;12.348;2023-08-17T12:08:58;28.00;99.90
18191;DHT22;47004;51.366;12.348;2023-08-17T12:11:00;28.00;99.90
18191;DHT22;47004;51.366;12.348;2023-08-17T12:13:10;28.00;99.90
18191;DHT22;47004;51.366;12.348;2023-08-17T12:15:12;28.20;99.90
18191;DHT22;47004;51.366;12.348;2023-08-17T12:17:14;28.40;99.90
18191;DHT22;47004;51.366;12.348;2023-08-17T12:19:19;28.60;99.90
18191;DHT22;47004;51.366;12.348;2023-08-17T12:21:23;28.90;99.90
18191;DHT22;47004;51.366;12.348;2023-08-17T12:23:26;29.20;99.90
18191;DHT22;47004;51.366;12.348;2023-08-17T12:25:28;29.50;99.90
18191;DHT22;47004;51.366;12.348;2023-08-17T12:27:29;29.70;99.90
18191;DHT22;47004;51.366;12.348;2023-08-17T17:56:04;25.10;99.90
18191;DHT22;47004;51.366;12.348;2023-08-17T17:58:06;25.00;99.90
18191;DHT22;47004;51.366;12.348;2023-08-17T18:00:09;25.00;99.90
18191;DHT22;47004;51.366;12.348;2023-08-17T18:02:11;25.00;99.90
18191;DHT22;47004;51.366;12.348;2023-08-17T18:04:13;24.90;99.90
18191;DHT22;47004;51.366;12.348;2023-08-17T18:06:15;24.80;99.90
18191;DHT22;47004;51.366;12.348;2023-08-17T18:08:17;24.60;99.90
18191;DHT22;47004;51.366;12.348;2023-08-17T18:10:18;24.50;99.90
18191;DHT22;47004;51.366;12.348;2023-08-17T18:12:21;24.30;99.90